createdAt,value
2019-05-22T00:00:33.767Z,69.10
2019-05-22T00:01:33.768Z,68.80
2019-05-22T00:02:33.756Z,70.80
2019-05-22T00:03:33.739Z,75.10
2019-05-22T00:04:33.739Z,68.50
2019-05-22T00:05:33.720Z,70.00
2019-05-22T00:06:33.826Z,69.10
2019-05-22T00:07:33.665Z,68.90
2019-05-22T00:08:33.675Z,69.10
2019-05-22T00:09:33.650Z,73.00
2019-05-22T00:10:33.651Z,69.80
2019-05-22T00:11:33.619Z,74.90
2019-05-22T00:12:46.064Z,73.30
2019-05-22T00:13:34.631Z,73.20
2019-05-22T00:14:33.585Z,74.20
2019-05-22T00:15:33.578Z,78.90
2019-05-22T00:16:33.570Z,75.40
2019-05-22T00:17:33.552Z,78.50
2019-05-22T00:18:33.543Z,76.80
2019-05-22T00:19:33.544Z,80.00
2019-05-22T00:20:33.523Z,76.50
2019-05-22T00:21:33.513Z,79.90
2019-05-22T00:22:33.520Z,83.90
2019-05-22T00:23:33.486Z,83.60
2019-05-22T00:24:33.486Z,79.00
2019-05-22T00:25:33.471Z,79.90
2019-05-22T00:26:33.457Z,79.40
2019-05-22T00:27:33.438Z,77.30
2019-05-22T00:28:33.430Z,79.90
2019-05-22T00:29:33.433Z,82.20
2019-05-22T00:30:33.425Z,78.80
2019-05-22T00:31:33.408Z,84.30
2019-05-22T00:32:33.386Z,79.50
2019-05-22T00:33:36.218Z,82.10
2019-05-22T00:34:33.391Z,77.70
2019-05-22T00:35:33.352Z,79.40
2019-05-22T00:36:33.359Z,83.30
2019-05-22T00:37:33.330Z,77.90
2019-05-22T00:38:33.320Z,80.80
2019-05-22T00:39:33.309Z,80.00
2019-05-22T00:40:33.313Z,78.60
2019-05-22T00:41:33.299Z,77.90
2019-05-22T00:42:33.277Z,76.10
2019-05-22T00:43:33.264Z,74.30
2019-05-22T00:44:33.257Z,73.10
2019-05-22T00:45:33.254Z,71.20
2019-05-22T00:46:33.231Z,67.60
2019-05-22T00:47:33.217Z,68.30
2019-05-22T00:48:33.228Z,68.30
2019-05-22T00:49:33.193Z,65.20
2019-05-22T00:50:33.194Z,63.90
2019-05-22T00:51:33.207Z,66.00
2019-05-22T00:52:33.159Z,67.20
2019-05-22T00:53:33.156Z,65.30
2019-05-22T00:54:33.139Z,63.60
2019-05-22T00:55:33.125Z,64.60
2019-05-22T00:56:33.113Z,61.30
2019-05-22T00:57:33.121Z,60.30
2019-05-22T00:58:33.102Z,61.60
2019-05-22T00:59:33.909Z,59.20
2019-05-22T01:00:34.958Z,60.80
2019-05-22T01:01:33.084Z,60.40
2019-05-22T01:02:33.068Z,62.00
2019-05-22T01:03:33.042Z,58.20
2019-05-22T01:04:33.032Z,58.10
2019-05-22T01:05:33.021Z,59.30
2019-05-22T01:06:33.024Z,57.80
2019-05-22T01:07:32.997Z,49.20
2019-05-22T01:08:32.990Z,50.10
2019-05-22T01:09:32.977Z,50.80
2019-05-22T01:10:32.967Z,47.50
2019-05-22T01:11:32.965Z,47.90
2019-05-22T01:12:32.969Z,46.40
2019-05-22T01:13:32.933Z,46.10
2019-05-22T01:14:42.514Z,44.20
2019-05-22T01:15:33.906Z,45.60
2019-05-22T01:16:32.894Z,47.20
2019-05-22T01:17:32.898Z,47.30
2019-05-22T01:18:32.917Z,42.40
2019-05-22T01:19:32.865Z,46.70
2019-05-22T01:20:32.858Z,41.60
2019-05-22T01:21:32.842Z,44.00
2019-05-22T01:22:32.843Z,42.00
2019-05-22T01:23:32.830Z,39.90
2019-05-22T01:24:32.805Z,42.40
2019-05-22T01:25:32.805Z,39.70
2019-05-22T01:26:32.803Z,39.80
2019-05-22T01:27:32.776Z,39.00
2019-05-22T01:28:32.761Z,36.10
2019-05-22T01:29:32.753Z,40.20
2019-05-22T01:30:32.737Z,39.70
2019-05-22T01:31:32.728Z,39.20
2019-05-22T01:32:32.732Z,41.50
2019-05-22T01:33:32.718Z,37.50
2019-05-22T01:34:32.703Z,38.40
2019-05-22T01:35:32.683Z,38.80
2019-05-22T01:36:32.671Z,39.20
2019-05-22T01:37:32.662Z,39.70
2019-05-22T01:38:32.662Z,40.00
2019-05-22T01:39:32.639Z,40.20
2019-05-22T01:40:32.624Z,39.50
2019-05-22T01:41:32.617Z,38.80
2019-05-22T01:42:32.644Z,35.50
2019-05-22T01:43:32.608Z,36.50
2019-05-22T01:44:32.594Z,37.70
2019-05-22T01:45:32.572Z,40.80
2019-05-22T01:46:32.561Z,38.10
2019-05-22T01:47:32.563Z,38.30
2019-05-22T01:48:32.551Z,38.00
2019-05-22T01:49:32.543Z,35.90
2019-05-22T01:50:32.515Z,38.30
2019-05-22T01:51:32.503Z,38.60
2019-05-22T01:52:32.493Z,38.00
2019-05-22T01:53:32.501Z,38.70
2019-05-22T01:54:32.473Z,39.00
2019-05-22T01:55:32.451Z,41.00
2019-05-22T01:56:32.446Z,37.50
2019-05-22T01:57:32.434Z,40.70
2019-05-22T01:58:32.451Z,38.90
2019-05-22T01:59:32.410Z,40.70
2019-05-22T02:00:32.395Z,42.20
2019-05-22T02:01:32.389Z,37.30
2019-05-22T02:02:32.375Z,39.70
2019-05-22T02:03:32.363Z,39.80
2019-05-22T02:04:32.361Z,43.90
2019-05-22T02:05:32.353Z,44.30
2019-05-22T02:06:32.332Z,36.90
2019-05-22T02:07:32.320Z,39.50
2019-05-22T02:08:32.318Z,40.10
2019-05-22T02:09:32.301Z,32.00
2019-05-22T02:10:32.320Z,33.60
2019-05-22T02:11:32.271Z,34.30
2019-05-22T02:12:32.269Z,32.00
2019-05-22T02:13:32.260Z,33.40
2019-05-22T02:14:32.237Z,32.30
2019-05-22T02:15:32.228Z,32.80
2019-05-22T02:16:32.239Z,29.70
2019-05-22T02:17:32.202Z,33.00
2019-05-22T02:18:32.195Z,31.40
2019-05-22T02:19:32.185Z,29.30
2019-05-22T02:20:32.176Z,29.50
2019-05-22T02:21:32.182Z,29.40
2019-05-22T02:22:32.151Z,33.30
2019-05-22T02:23:32.140Z,27.10
2019-05-22T02:24:32.133Z,31.40
2019-05-22T02:25:32.121Z,26.90
2019-05-22T02:26:32.105Z,28.70
2019-05-22T02:27:32.105Z,29.00
2019-05-22T02:28:32.083Z,28.80
2019-05-22T02:29:32.080Z,28.20
2019-05-22T02:30:32.087Z,29.50
2019-05-22T02:31:32.048Z,25.30
2019-05-22T02:32:32.037Z,27.30
2019-05-22T02:33:32.030Z,25.60
2019-05-22T02:34:32.029Z,27.20
2019-05-22T02:35:32.005Z,29.20
2019-05-22T02:36:32.012Z,25.00
2019-05-22T02:37:31.982Z,28.00
2019-05-22T02:38:31.974Z,28.00
2019-05-22T02:39:31.969Z,29.50
2019-05-22T02:40:31.970Z,27.00
2019-05-22T02:41:31.939Z,28.90
2019-05-22T02:42:31.947Z,27.00
2019-05-22T02:43:31.920Z,28.90
2019-05-22T02:44:31.991Z,26.70
2019-05-22T02:45:31.908Z,28.00
2019-05-22T02:46:31.926Z,25.30
2019-05-22T02:47:31.874Z,29.70
2019-05-22T02:48:32.378Z,29.20
2019-05-22T02:49:31.851Z,25.80
2019-05-22T02:50:31.841Z,29.60
2019-05-22T02:51:31.842Z,26.60
2019-05-22T02:52:31.816Z,27.20
2019-05-22T02:53:31.801Z,28.30
2019-05-22T02:54:31.809Z,28.30
2019-05-22T02:55:31.783Z,26.00
2019-05-22T02:56:31.787Z,26.70
2019-05-22T02:57:31.762Z,26.60
2019-05-22T02:58:31.768Z,27.50
2019-05-22T02:59:31.739Z,28.20
2019-05-22T03:00:31.722Z,24.10
2019-05-22T03:01:31.725Z,24.30
2019-05-22T03:02:31.714Z,24.50
2019-05-22T03:03:31.689Z,26.00
2019-05-22T03:04:31.684Z,24.70
2019-05-22T03:05:31.671Z,24.80
2019-05-22T03:06:31.657Z,25.00
2019-05-22T03:07:31.849Z,23.20
2019-05-22T03:08:31.633Z,27.00
2019-05-22T03:09:31.623Z,23.40
2019-05-22T03:10:31.619Z,25.00
2019-05-22T03:11:35.175Z,23.40
2019-05-22T03:12:31.593Z,25.30
2019-05-22T03:13:31.598Z,23.10
2019-05-22T03:14:31.569Z,20.10
2019-05-22T03:15:31.560Z,22.30
2019-05-22T03:16:31.544Z,23.40
2019-05-22T03:17:31.569Z,22.60
2019-05-22T03:18:31.523Z,24.70
2019-05-22T03:19:31.527Z,20.90
2019-05-22T03:20:31.507Z,23.30
2019-05-22T03:21:31.489Z,21.50
2019-05-22T03:22:31.490Z,20.30
2019-05-22T03:23:31.465Z,24.00
2019-05-22T03:24:31.469Z,22.40
2019-05-22T03:25:31.444Z,23.00
2019-05-22T03:26:31.431Z,19.40
2019-05-22T03:27:31.425Z,20.60
2019-05-22T03:28:31.421Z,22.10
2019-05-22T03:29:31.421Z,20.00
2019-05-22T03:30:31.392Z,22.70
2019-05-22T03:31:31.525Z,21.50
2019-05-22T03:32:31.369Z,20.80
2019-05-22T03:33:31.359Z,20.30
2019-05-22T03:34:31.358Z,22.80
2019-05-22T03:35:31.511Z,19.80
2019-05-22T03:36:31.327Z,18.20
2019-05-22T03:37:31.311Z,19.60
2019-05-22T03:38:31.297Z,21.10
2019-05-22T03:39:31.299Z,20.00
2019-05-22T03:40:31.276Z,19.40
2019-05-22T03:41:31.263Z,18.00
2019-05-22T03:42:31.261Z,20.00
2019-05-22T03:43:31.241Z,19.50
2019-05-22T03:44:31.245Z,20.10
2019-05-22T03:45:31.220Z,18.60
2019-05-22T03:46:31.208Z,19.60
2019-05-22T03:47:31.208Z,20.70
2019-05-22T03:48:31.210Z,19.20
2019-05-22T03:49:31.557Z,19.60
2019-05-22T03:50:31.172Z,18.70
2019-05-22T03:51:31.168Z,18.20
2019-05-22T03:52:31.145Z,17.20
2019-05-22T03:53:31.135Z,19.30
2019-05-22T03:54:31.122Z,18.70
2019-05-22T03:55:31.109Z,18.10
2019-05-22T03:56:31.117Z,18.80
2019-05-22T03:57:31.097Z,18.20
2019-05-22T03:58:31.089Z,22.60
2019-05-22T03:59:31.084Z,19.00
2019-05-22T04:00:31.066Z,20.20
2019-05-22T04:01:31.056Z,18.80
2019-05-22T04:02:31.041Z,20.20
2019-05-22T04:03:31.022Z,21.60
2019-05-22T04:04:31.009Z,19.60
2019-05-22T04:05:31.018Z,17.50
2019-05-22T04:06:31.000Z,18.40
2019-05-22T04:07:30.979Z,19.50
2019-05-22T04:08:30.971Z,20.40
2019-05-22T04:09:30.951Z,18.90
2019-05-22T04:10:30.959Z,17.60
2019-05-22T04:11:30.932Z,18.80
2019-05-22T04:12:30.917Z,18.20
2019-05-22T04:13:30.919Z,18.10
2019-05-22T04:14:30.895Z,17.50
2019-05-22T04:15:30.896Z,16.70
2019-05-22T04:16:30.871Z,18.20
2019-05-22T04:17:30.863Z,18.10
2019-05-22T04:18:30.853Z,20.60
2019-05-22T04:19:47.701Z,18.00
2019-05-22T04:20:31.841Z,19.50
2019-05-22T04:21:30.818Z,17.90
2019-05-22T04:22:30.807Z,19.30
2019-05-22T04:23:30.795Z,19.40
2019-05-22T04:24:30.784Z,16.80
2019-05-22T04:25:30.863Z,17.30
2019-05-22T04:26:30.764Z,17.90
2019-05-22T04:27:30.762Z,19.00
2019-05-22T04:28:30.739Z,18.40
2019-05-22T04:29:30.740Z,18.70
2019-05-22T04:30:30.722Z,17.20
2019-05-22T04:31:30.717Z,16.80
2019-05-22T04:32:30.702Z,17.10
2019-05-22T04:33:30.730Z,16.40
2019-05-22T04:34:30.671Z,19.90
2019-05-22T04:35:30.667Z,17.90
2019-05-22T04:36:30.666Z,18.40
2019-05-22T04:37:30.636Z,18.00
2019-05-22T04:38:30.627Z,17.30
2019-05-22T04:39:30.615Z,16.30
2019-05-22T04:40:30.618Z,17.10
2019-05-22T04:41:30.605Z,17.20
2019-05-22T04:42:30.582Z,15.40
2019-05-22T04:43:30.569Z,19.10
2019-05-22T04:44:30.564Z,16.70
2019-05-22T04:45:30.550Z,17.20
2019-05-22T04:46:30.555Z,15.50
2019-05-22T04:47:30.538Z,17.60
2019-05-22T04:48:30.518Z,18.00
2019-05-22T04:49:30.502Z,15.70
2019-05-22T04:50:30.497Z,15.00
2019-05-22T04:51:30.490Z,14.40
2019-05-22T04:52:30.485Z,13.70
2019-05-22T04:53:30.461Z,15.50
2019-05-22T04:54:30.444Z,14.70
2019-05-22T04:55:30.438Z,16.60
2019-05-22T04:56:30.426Z,15.10
2019-05-22T04:57:30.425Z,17.20
2019-05-22T04:58:30.401Z,17.00
2019-05-22T04:59:30.404Z,15.90
2019-05-22T05:00:30.390Z,15.70
2019-05-22T05:01:30.371Z,16.40
2019-05-22T05:02:30.378Z,16.70
2019-05-22T05:03:30.359Z,18.00
2019-05-22T05:04:30.340Z,16.00
2019-05-22T05:05:30.327Z,17.50
2019-05-22T05:06:30.311Z,18.80
2019-05-22T05:07:30.302Z,16.70
2019-05-22T05:08:30.325Z,16.20
2019-05-22T05:09:30.277Z,16.90
2019-05-22T05:10:30.264Z,16.50
2019-05-22T05:11:30.253Z,17.10
2019-05-22T05:12:30.240Z,12.90
2019-05-22T05:13:30.234Z,14.70
2019-05-22T05:14:30.236Z,14.10
2019-05-22T05:15:30.209Z,12.20
2019-05-22T05:16:30.196Z,12.90
2019-05-22T05:17:30.202Z,12.20
2019-05-22T05:18:30.177Z,12.20
2019-05-22T05:19:30.184Z,13.10
2019-05-22T05:20:30.157Z,13.00
2019-05-22T05:21:30.143Z,10.30
2019-05-22T05:22:30.132Z,11.80
2019-05-22T05:23:30.156Z,10.50
2019-05-22T05:24:30.111Z,10.70
2019-05-22T05:25:30.096Z,12.20
2019-05-22T05:26:30.084Z,12.00
2019-05-22T05:27:30.088Z,13.10
2019-05-22T05:28:30.062Z,12.80
2019-05-22T05:29:30.069Z,12.10
2019-05-22T05:30:30.040Z,12.30
2019-05-22T05:31:30.076Z,11.40
2019-05-22T05:32:30.021Z,10.10
2019-05-22T05:33:30.026Z,10.70
2019-05-22T05:34:30.012Z,11.20
2019-05-22T05:35:29.989Z,9.80
2019-05-22T05:36:29.976Z,12.10
2019-05-22T05:37:29.976Z,10.30
2019-05-22T05:38:29.953Z,11.10
2019-05-22T05:39:29.961Z,11.30
2019-05-22T05:40:29.937Z,11.50
2019-05-22T05:41:29.919Z,11.40
2019-05-22T05:42:29.911Z,12.00
2019-05-22T05:43:29.902Z,11.20
2019-05-22T05:44:29.891Z,12.50
2019-05-22T05:45:29.887Z,12.10
2019-05-22T05:46:29.862Z,11.80
2019-05-22T05:47:29.856Z,11.50
2019-05-22T05:48:29.844Z,11.10
2019-05-22T05:49:29.833Z,11.40
2019-05-22T05:50:38.973Z,12.60
2019-05-22T05:51:30.812Z,14.60
2019-05-22T05:52:29.814Z,12.00
2019-05-22T05:53:29.787Z,13.00
2019-05-22T05:54:30.424Z,13.40
2019-05-22T05:55:29.788Z,13.90
2019-05-22T05:56:29.751Z,12.80
2019-05-22T05:57:29.747Z,14.90
2019-05-22T05:58:30.168Z,13.40
2019-05-22T05:59:29.718Z,14.60
2019-05-22T06:00:29.711Z,13.90
2019-05-22T06:01:29.738Z,14.80
2019-05-22T06:02:29.686Z,15.50
2019-05-22T06:03:29.678Z,15.60
2019-05-22T06:04:34.826Z,17.90
2019-05-22T06:05:30.661Z,17.70
2019-05-22T06:06:29.641Z,18.90
2019-05-22T06:07:29.643Z,19.80
2019-05-22T06:08:29.637Z,19.90
2019-05-22T06:09:29.608Z,20.40
2019-05-22T06:10:29.641Z,20.50
2019-05-22T06:11:29.591Z,21.10
2019-05-22T06:12:29.573Z,18.60
2019-05-22T06:13:29.574Z,19.10
2019-05-22T06:14:29.553Z,20.20
2019-05-22T06:15:45.626Z,21.50
2019-05-22T06:16:30.625Z,18.40
2019-05-22T06:17:29.521Z,17.60
2019-05-22T06:18:29.539Z,19.70
2019-05-22T06:19:29.552Z,19.90
2019-05-22T06:20:29.532Z,22.70
2019-05-22T06:21:29.474Z,23.50
2019-05-22T06:22:29.466Z,22.10
2019-05-22T06:23:29.459Z,18.70
2019-05-22T06:24:29.562Z,19.10
2019-05-22T06:25:29.465Z,18.50
2019-05-22T06:26:29.432Z,20.00
2019-05-22T06:27:29.415Z,20.60
2019-05-22T06:28:29.399Z,22.70
2019-05-22T06:29:29.817Z,21.30
2019-05-22T06:30:29.386Z,19.70
2019-05-22T06:31:29.365Z,20.60
2019-05-22T06:32:29.369Z,20.20
2019-05-22T06:33:29.346Z,22.00
2019-05-22T06:34:29.330Z,20.40
2019-05-22T06:35:29.344Z,20.90
2019-05-22T06:36:29.307Z,20.80
2019-05-22T06:37:29.299Z,20.20
2019-05-22T06:38:29.285Z,20.10
2019-05-22T06:39:29.277Z,19.90
2019-05-22T06:40:29.316Z,22.10
2019-05-22T06:41:29.257Z,19.50
2019-05-22T06:42:29.242Z,20.90
2019-05-22T06:43:29.243Z,21.10
2019-05-22T06:44:29.220Z,19.30
2019-05-22T06:45:29.210Z,22.50
2019-05-22T06:46:29.231Z,20.30
2019-05-22T06:47:29.217Z,20.40
2019-05-22T06:48:29.176Z,21.10
2019-05-22T06:49:29.166Z,21.10
2019-05-22T06:50:29.158Z,21.00
2019-05-22T06:51:29.138Z,19.90
2019-05-22T06:52:29.134Z,18.80
2019-05-22T06:53:29.130Z,21.70
2019-05-22T06:54:29.105Z,16.90
2019-05-22T06:55:29.100Z,18.20
2019-05-22T06:56:29.100Z,16.70
2019-05-22T06:57:29.074Z,19.20
2019-05-22T06:58:29.079Z,18.40
2019-05-22T06:59:29.059Z,17.50
2019-05-22T07:00:29.040Z,18.60
2019-05-22T07:01:29.033Z,16.40
2019-05-22T07:02:29.031Z,18.90
2019-05-22T07:03:29.027Z,16.90
2019-05-22T07:04:29.076Z,16.20
2019-05-22T07:05:28.988Z,16.40
2019-05-22T07:06:28.975Z,16.20
2019-05-22T07:07:28.966Z,16.00
2019-05-22T07:08:28.952Z,18.60
2019-05-22T07:09:28.952Z,15.70
2019-05-22T07:10:28.992Z,19.30
2019-05-22T07:11:28.913Z,17.00
2019-05-22T07:12:28.922Z,18.20
2019-05-22T07:13:28.900Z,16.50
2019-05-22T07:14:28.888Z,17.60
2019-05-22T07:15:28.882Z,16.10
2019-05-22T07:16:28.858Z,17.10
2019-05-22T07:17:28.857Z,15.70
2019-05-22T07:18:28.851Z,16.70
2019-05-22T07:19:28.835Z,17.20
2019-05-22T07:20:28.840Z,15.00
2019-05-22T07:21:34.039Z,17.30
2019-05-22T07:22:30.015Z,15.00
2019-05-22T07:23:28.784Z,15.00
2019-05-22T07:24:28.775Z,16.00
2019-05-22T07:25:28.783Z,13.80
2019-05-22T07:26:28.752Z,14.80
2019-05-22T07:27:28.774Z,15.80
2019-05-22T07:28:28.729Z,16.80
2019-05-22T07:29:28.723Z,13.70
2019-05-22T07:30:28.701Z,16.40
2019-05-22T07:31:28.695Z,13.50
2019-05-22T07:32:31.078Z,13.90
2019-05-22T07:33:28.733Z,15.00
2019-05-22T07:34:28.659Z,15.40
2019-05-22T07:35:45.609Z,14.70
2019-05-22T07:36:29.636Z,14.40
2019-05-22T07:37:28.627Z,12.20
2019-05-22T07:38:28.629Z,13.60
2019-05-22T07:39:28.601Z,13.00
2019-05-22T07:40:28.611Z,13.70
2019-05-22T07:41:28.586Z,11.40
2019-05-22T07:42:28.576Z,11.50
2019-05-22T07:43:28.573Z,14.30
2019-05-22T07:44:28.546Z,11.40
2019-05-22T07:45:28.537Z,12.20
2019-05-22T07:46:30.981Z,11.40
2019-05-22T07:47:28.529Z,11.40
2019-05-22T07:48:28.522Z,12.50
2019-05-22T07:49:28.490Z,10.60
2019-05-22T07:50:28.482Z,9.70
2019-05-22T07:51:28.467Z,11.20
2019-05-22T07:52:28.458Z,11.50
2019-05-22T07:53:28.473Z,11.80
2019-05-22T07:54:28.439Z,10.10
2019-05-22T07:55:28.422Z,13.10
2019-05-22T07:56:28.413Z,10.30
2019-05-22T07:57:28.402Z,10.70
2019-05-22T07:58:28.416Z,13.00
2019-05-22T07:59:28.396Z,10.10
2019-05-22T08:00:28.371Z,9.90
2019-05-22T08:01:28.362Z,10.50
2019-05-22T08:02:28.348Z,10.30
2019-05-22T08:03:28.348Z,10.60
2019-05-22T08:04:28.323Z,13.10
2019-05-22T08:05:28.353Z,9.90
2019-05-22T08:06:28.304Z,10.70
2019-05-22T08:07:28.290Z,11.10
2019-05-22T08:08:28.349Z,11.10
2019-05-22T08:09:28.269Z,10.90
2019-05-22T08:10:28.260Z,9.10
2019-05-22T08:11:28.246Z,8.60
2019-05-22T08:12:28.243Z,8.10
2019-05-22T08:13:28.324Z,8.80
2019-05-22T08:14:28.211Z,9.10
2019-05-22T08:15:28.204Z,10.00
2019-05-22T08:16:28.193Z,12.60
2019-05-22T08:17:28.177Z,9.90
2019-05-22T08:18:28.166Z,8.20
2019-05-22T08:19:28.235Z,8.10
2019-05-22T08:20:28.153Z,8.80
2019-05-22T08:21:28.145Z,7.50
2019-05-22T08:22:28.124Z,8.60
2019-05-22T08:23:28.114Z,10.60
2019-05-22T08:24:28.102Z,9.10
2019-05-22T08:25:28.090Z,9.40
2019-05-22T08:26:28.090Z,8.30
2019-05-22T08:27:28.068Z,11.50
2019-05-22T08:28:28.059Z,8.30
2019-05-22T08:29:28.089Z,11.20
2019-05-22T08:30:28.035Z,11.30
2019-05-22T08:31:28.056Z,8.50
2019-05-22T08:32:28.014Z,8.30
2019-05-22T08:33:28.008Z,12.30
2019-05-22T08:34:28.001Z,10.90
2019-05-22T08:35:27.985Z,9.00
2019-05-22T08:36:27.965Z,8.70
2019-05-22T08:37:28.030Z,11.00
2019-05-22T08:38:27.955Z,11.00
2019-05-22T08:39:27.936Z,8.40
2019-05-22T08:40:27.925Z,10.60
2019-05-22T08:41:27.915Z,9.00
2019-05-22T08:42:27.918Z,7.90
2019-05-22T08:43:27.893Z,10.00
2019-05-22T08:44:27.881Z,8.40
2019-05-22T08:45:27.866Z,9.20
2019-05-22T08:46:27.869Z,9.40
2019-05-22T08:47:27.845Z,7.90
2019-05-22T08:48:27.849Z,8.60
2019-05-22T08:49:27.825Z,10.50
2019-05-22T08:50:27.828Z,9.00
2019-05-22T08:51:27.813Z,9.10
2019-05-22T08:52:27.790Z,9.40
2019-05-22T08:53:27.785Z,9.50
2019-05-22T08:54:27.767Z,11.50
2019-05-22T08:55:27.764Z,10.30
2019-05-22T08:56:27.764Z,9.90
2019-05-22T08:57:27.749Z,10.80
2019-05-22T08:58:27.736Z,9.10
2019-05-22T08:59:27.728Z,10.30
2019-05-22T09:00:27.706Z,11.40
2019-05-22T09:01:27.695Z,7.70
2019-05-22T09:02:27.679Z,13.20
2019-05-22T09:03:27.685Z,9.60
2019-05-22T09:04:27.658Z,10.00
2019-05-22T09:05:27.657Z,10.00
2019-05-22T09:06:27.637Z,8.70
2019-05-22T09:07:27.643Z,9.00
2019-05-22T09:08:27.610Z,9.80
2019-05-22T09:09:27.623Z,10.10
2019-05-22T09:10:27.590Z,8.60
2019-05-22T09:11:27.586Z,10.10
2019-05-22T09:12:27.578Z,9.70
2019-05-22T09:13:27.575Z,7.90
2019-05-22T09:14:27.566Z,10.40
2019-05-22T09:15:27.541Z,11.40
2019-05-22T09:16:27.528Z,9.80
2019-05-22T09:17:27.530Z,9.50
2019-05-22T09:18:27.499Z,8.40
2019-05-22T09:19:27.489Z,8.80
2019-05-22T09:20:27.477Z,9.30
2019-05-22T09:21:27.464Z,9.40
2019-05-22T09:22:40.049Z,7.50
2019-05-22T09:23:28.450Z,10.90
2019-05-22T09:24:27.631Z,8.30
2019-05-22T09:25:27.435Z,8.10
2019-05-22T09:26:27.409Z,7.50
2019-05-22T09:27:27.414Z,9.40
2019-05-22T09:28:27.447Z,8.60
2019-05-22T09:29:27.391Z,8.60
2019-05-22T09:30:27.385Z,8.60
2019-05-22T09:31:27.356Z,7.90
2019-05-22T09:32:27.344Z,8.80
2019-05-22T09:33:27.333Z,9.90
2019-05-22T09:34:27.334Z,8.10
2019-05-22T09:35:27.321Z,9.00
2019-05-22T09:36:27.300Z,9.50
2019-05-22T09:37:27.296Z,10.20
2019-05-22T09:38:27.276Z,10.30
2019-05-22T09:39:27.339Z,10.40
2019-05-22T09:40:27.254Z,13.30
2019-05-22T09:41:27.248Z,10.80
2019-05-22T09:42:27.237Z,9.70
2019-05-22T09:43:27.223Z,9.80
2019-05-22T09:44:27.229Z,11.60
2019-05-22T09:45:27.199Z,9.10
2019-05-22T09:46:27.211Z,10.50
2019-05-22T09:47:27.177Z,10.30
2019-05-22T09:48:27.174Z,10.50
2019-05-22T09:49:27.221Z,9.90
2019-05-22T09:50:27.145Z,11.00
2019-05-22T09:51:27.148Z,8.50
2019-05-22T09:52:27.124Z,11.50
2019-05-22T09:53:27.119Z,8.30
2019-05-22T09:54:27.100Z,11.90
2019-05-22T09:55:27.102Z,10.50
2019-05-22T09:56:27.085Z,8.40
2019-05-22T09:57:27.085Z,10.40
2019-05-22T09:58:27.095Z,7.40
2019-05-22T09:59:27.048Z,8.50
2019-05-22T10:00:27.054Z,8.60
2019-05-22T10:01:27.046Z,11.70
2019-05-22T10:02:27.033Z,8.30
2019-05-22T10:03:27.011Z,8.10
2019-05-22T10:04:27.004Z,10.70
2019-05-22T10:05:26.990Z,9.00
2019-05-22T10:06:26.983Z,8.90
2019-05-22T10:07:26.967Z,8.30
2019-05-22T10:08:26.952Z,8.60
2019-05-22T10:09:26.940Z,8.90
2019-05-22T10:10:26.935Z,8.80
2019-05-22T10:11:26.914Z,9.30
2019-05-22T10:12:26.900Z,8.60
2019-05-22T10:13:29.130Z,8.00
2019-05-22T10:14:26.885Z,10.00
2019-05-22T10:15:27.334Z,9.00
2019-05-22T10:16:26.855Z,10.50
2019-05-22T10:17:26.847Z,9.40
2019-05-22T10:18:26.835Z,11.00
2019-05-22T10:19:26.869Z,9.80
2019-05-22T10:20:26.822Z,10.60
2019-05-22T10:21:26.801Z,10.00
2019-05-22T10:22:26.797Z,9.80
2019-05-22T10:23:26.781Z,9.50
2019-05-22T10:24:26.800Z,11.40
2019-05-22T10:25:26.755Z,10.50
2019-05-22T10:26:26.744Z,11.70
2019-05-22T10:27:26.738Z,11.00
2019-05-22T10:28:26.736Z,10.10
2019-05-22T10:29:26.714Z,10.10
2019-05-22T10:30:26.711Z,9.20
2019-05-22T10:31:26.721Z,11.30
2019-05-22T10:32:31.656Z,8.20
2019-05-22T10:33:27.666Z,10.80
2019-05-22T10:34:26.654Z,13.00
2019-05-22T10:35:26.647Z,12.50
2019-05-22T10:36:26.637Z,8.40
2019-05-22T10:37:26.635Z,8.90
2019-05-22T10:38:26.639Z,10.50
2019-05-22T10:39:26.625Z,10.70
2019-05-22T10:40:26.597Z,9.30
2019-05-22T10:41:26.577Z,10.10
2019-05-22T10:42:26.597Z,11.60
2019-05-22T10:43:26.562Z,9.60
2019-05-22T10:44:26.547Z,11.30
2019-05-22T10:45:26.550Z,9.60
2019-05-22T10:46:26.523Z,8.50
2019-05-22T10:47:26.515Z,9.40
2019-05-22T10:48:26.503Z,9.20
2019-05-22T10:49:26.506Z,9.20
2019-05-22T10:50:26.497Z,10.40
2019-05-22T10:51:26.485Z,8.90
2019-05-22T10:52:26.460Z,9.90
2019-05-22T10:53:33.488Z,8.10
2019-05-22T10:54:27.434Z,9.60
2019-05-22T10:55:26.430Z,8.30
2019-05-22T10:56:26.426Z,8.50
2019-05-22T10:57:26.406Z,10.30
2019-05-22T10:58:26.395Z,8.00
2019-05-22T10:59:26.395Z,10.00
2019-05-22T11:00:26.379Z,10.40
2019-05-22T11:01:26.392Z,8.30
2019-05-22T11:02:26.350Z,11.60
2019-05-22T11:03:26.343Z,9.30
2019-05-22T11:04:27.119Z,9.70
2019-05-22T11:05:26.334Z,9.10
2019-05-22T11:06:26.307Z,9.10
2019-05-22T11:07:26.296Z,8.50
2019-05-22T11:08:30.330Z,10.30
2019-05-22T11:09:27.275Z,8.80
2019-05-22T11:10:26.270Z,7.60
2019-05-22T11:11:26.255Z,7.80
2019-05-22T11:12:26.241Z,9.80
2019-05-22T11:13:26.242Z,9.70
2019-05-22T11:14:26.223Z,7.70
2019-05-22T11:15:26.211Z,7.80
2019-05-22T11:16:26.217Z,9.20
2019-05-22T11:17:26.189Z,9.20
2019-05-22T11:18:26.180Z,9.50
2019-05-22T11:19:26.171Z,9.10
2019-05-22T11:20:26.168Z,8.30
2019-05-22T11:21:26.162Z,7.80
2019-05-22T11:22:26.137Z,8.90
2019-05-22T11:23:26.148Z,8.30
2019-05-22T11:24:26.118Z,9.80
2019-05-22T11:25:26.112Z,9.20
2019-05-22T11:26:26.134Z,9.20
2019-05-22T11:27:26.090Z,8.30
2019-05-22T11:28:26.123Z,7.40
2019-05-22T11:29:26.144Z,8.60
2019-05-22T11:30:26.108Z,8.10
2019-05-22T11:31:26.066Z,7.90
2019-05-22T11:32:26.046Z,8.50
2019-05-22T11:33:26.048Z,8.40
2019-05-22T11:34:26.068Z,7.90
2019-05-22T11:35:26.016Z,8.20
2019-05-22T11:36:26.080Z,7.10
2019-05-22T11:37:25.988Z,7.90
2019-05-22T11:38:26.024Z,8.80
2019-05-22T11:39:38.639Z,7.20
2019-05-22T11:40:26.957Z,7.90
2019-05-22T11:41:25.952Z,8.80
2019-05-22T11:42:25.941Z,7.70
2019-05-22T11:43:25.941Z,7.70
2019-05-22T11:44:25.954Z,7.90
2019-05-22T11:45:25.932Z,7.80
2019-05-22T11:46:25.900Z,9.40
2019-05-22T11:47:25.951Z,7.80
2019-05-22T11:48:25.886Z,8.00
2019-05-22T11:49:25.892Z,7.80
2019-05-22T11:50:25.876Z,7.60
2019-05-22T11:51:25.855Z,7.50
2019-05-22T11:52:25.847Z,7.40
2019-05-22T11:53:25.828Z,9.20
2019-05-22T11:54:25.821Z,7.60
2019-05-22T11:55:42.563Z,8.10
2019-05-22T11:56:26.799Z,8.80
2019-05-22T11:57:25.802Z,7.80
2019-05-22T11:58:25.779Z,8.10
2019-05-22T11:59:25.771Z,9.00
2019-05-22T12:00:25.779Z,8.80
2019-05-22T12:01:25.751Z,7.10
2019-05-22T12:02:25.739Z,8.60
2019-05-22T12:03:25.747Z,7.30
2019-05-22T12:04:25.765Z,7.40
2019-05-22T12:05:25.711Z,6.80
2019-05-22T12:06:25.706Z,7.50
2019-05-22T12:07:25.686Z,8.00
2019-05-22T12:08:25.688Z,7.60
2019-05-22T12:09:25.668Z,8.60
2019-05-22T12:10:25.734Z,7.60
2019-05-22T12:11:25.663Z,7.60
2019-05-22T12:12:25.636Z,6.40
2019-05-22T12:13:25.649Z,7.70
2019-05-22T12:14:25.616Z,8.60
2019-05-22T12:15:25.619Z,7.90
2019-05-22T12:16:25.594Z,7.10
2019-05-22T12:17:37.429Z,6.40
2019-05-22T12:18:26.642Z,8.30
2019-05-22T12:19:25.587Z,5.70
2019-05-22T12:20:25.560Z,7.50
2019-05-22T12:21:25.545Z,5.40
2019-05-22T12:22:25.540Z,5.40
2019-05-22T12:23:25.568Z,6.90
2019-05-22T12:24:30.274Z,6.10
2019-05-22T12:25:26.515Z,6.50
2019-05-22T12:26:25.524Z,5.90
2019-05-22T12:27:25.569Z,7.10
2019-05-22T12:28:25.489Z,5.90
2019-05-22T12:29:25.499Z,5.90
2019-05-22T12:30:25.466Z,7.00
2019-05-22T12:31:25.447Z,5.70
2019-05-22T12:32:25.444Z,6.10
2019-05-22T12:33:25.427Z,6.00
2019-05-22T12:34:25.436Z,6.00
2019-05-22T12:35:25.410Z,6.30
2019-05-22T12:36:25.401Z,5.20
2019-05-22T12:37:25.396Z,6.10
2019-05-22T12:38:27.155Z,7.00
2019-05-22T12:39:25.379Z,6.20
2019-05-22T12:40:25.370Z,6.20
2019-05-22T12:41:25.351Z,7.00
2019-05-22T12:42:25.340Z,6.00
2019-05-22T12:43:25.329Z,5.70
2019-05-22T12:44:25.319Z,6.10
2019-05-22T12:45:25.323Z,6.70
2019-05-22T12:46:25.295Z,6.40
2019-05-22T12:47:25.284Z,7.50
2019-05-22T12:48:25.278Z,5.90
2019-05-22T12:49:25.268Z,6.30
2019-05-22T12:50:25.298Z,6.70
2019-05-22T12:51:25.247Z,6.90
2019-05-22T12:52:25.236Z,6.70
2019-05-22T12:53:25.234Z,7.70
2019-05-22T12:54:25.216Z,6.30
2019-05-22T12:55:25.221Z,6.80
2019-05-22T12:56:25.198Z,6.60
2019-05-22T12:57:25.182Z,5.30
2019-05-22T12:58:25.171Z,9.20
2019-05-22T12:59:25.161Z,6.20
2019-05-22T13:00:25.161Z,5.60